createdAt,value
2023-05-02T00:01:06.784Z,12.19
2023-05-02T00:11:10.743Z,12.14
2023-05-02T00:21:14.083Z,12.03
2023-05-02T00:31:18.349Z,11.88
2023-05-02T00:41:21.053Z,12.04
2023-05-02T00:51:25.112Z,11.81
2023-05-02T01:01:36.815Z,11.54
2023-05-02T01:11:49.076Z,11.37
2023-05-02T01:21:54.149Z,11.31
2023-05-02T01:32:00.308Z,11.02
2023-05-02T01:42:04.621Z,10.85
2023-05-02T01:52:11.455Z,10.63
2023-05-02T02:02:15.394Z,10.28
2023-05-02T02:12:26.990Z,10.29
2023-05-02T02:22:31.317Z,10.35
2023-05-02T02:32:35.428Z,9.94
2023-05-02T02:42:45.617Z,9.88
2023-05-02T02:52:56.193Z,9.80
2023-05-02T03:02:59.028Z,9.65
2023-05-02T03:13:03.690Z,9.55
2023-05-02T03:23:06.361Z,9.49
2023-05-02T03:33:10.469Z,9.36
2023-05-02T03:43:13.157Z,9.18
2023-05-02T03:53:17.285Z,9.17
2023-05-02T04:03:20.062Z,9.20
2023-05-02T04:13:24.132Z,8.93
2023-05-02T04:23:26.794Z,8.82
2023-05-02T04:33:31.501Z,8.67
2023-05-02T04:43:34.087Z,8.79
2023-05-02T04:53:38.236Z,8.81
2023-05-02T05:03:41.075Z,8.93
2023-05-02T05:13:45.479Z,8.90
2023-05-02T05:23:48.257Z,8.98
2023-05-02T05:33:52.322Z,9.05
2023-05-02T05:43:56.242Z,9.11
2023-05-02T05:54:00.314Z,9.16
2023-05-02T06:04:04.872Z,9.27
2023-05-02T06:14:08.957Z,9.39
2023-05-02T06:24:11.572Z,9.32
2023-05-02T06:34:15.520Z,9.54
2023-05-02T06:44:18.323Z,9.77
2023-05-02T06:54:22.687Z,10.06
2023-05-02T07:04:26.193Z,10.16
2023-05-02T07:14:30.174Z,10.19
2023-05-02T07:24:32.905Z,10.21
2023-05-02T07:34:37.268Z,10.58
2023-05-02T07:44:39.889Z,10.65
2023-05-02T07:54:43.829Z,10.58
2023-05-02T08:04:46.751Z,11.08
2023-05-02T08:14:50.781Z,11.87
2023-05-02T08:24:53.361Z,11.59
2023-05-02T08:34:58.040Z,11.53
2023-05-02T08:45:01.791Z,12.28
2023-05-02T08:55:08.449Z,11.84
2023-05-02T09:05:13.347Z,13.06
2023-05-02T09:15:20.717Z,13.04
2023-05-02T09:25:23.830Z,13.15
2023-05-02T09:35:27.982Z,13.40
2023-05-02T09:45:30.607Z,13.11
2023-05-02T09:55:34.641Z,13.03
2023-05-02T10:05:39.193Z,12.66
2023-05-02T10:15:46.426Z,13.30
2023-05-02T10:25:49.803Z,13.37
2023-05-02T10:35:54.970Z,12.42
2023-05-02T10:45:57.673Z,12.08
2023-05-02T10:56:21.058Z,12.42
2023-05-02T11:06:23.974Z,13.78
2023-05-02T11:16:27.987Z,15.00
2023-05-02T11:26:32.719Z,13.19
2023-05-02T11:36:36.733Z,13.54
2023-05-02T11:46:40.518Z,13.97
2023-05-02T11:56:45.058Z,13.21
2023-05-02T12:06:56.456Z,13.53
2023-05-02T12:17:01.680Z,13.60
2023-05-02T12:27:11.674Z,13.37
2023-05-02T12:37:23.485Z,13.99
2023-05-02T12:47:26.426Z,20.60
2023-05-02T12:57:30.597Z,17.61
2023-05-02T13:07:33.201Z,14.82
2023-05-02T13:17:37.331Z,13.50
2023-05-02T13:27:41.011Z,13.35
2023-05-02T13:37:45.008Z,14.83
2023-05-02T13:47:47.616Z,13.61
2023-05-02T13:57:51.683Z,12.69
2023-05-02T14:07:54.312Z,13.06
2023-05-02T14:17:59.196Z,13.93
2023-05-02T14:28:02.733Z,14.85
2023-05-02T14:38:06.801Z,13.70
2023-05-02T14:48:10.761Z,15.45
2023-05-02T14:58:20.297Z,14.73
2023-05-02T15:08:23.058Z,13.43
2023-05-02T15:18:27.092Z,12.26
2023-05-02T15:28:29.731Z,12.82
2023-05-02T15:38:34.809Z,13.71
2023-05-02T15:48:37.440Z,13.90
2023-05-02T15:58:41.545Z,14.83
2023-05-02T16:08:44.450Z,14.62
2023-05-02T16:18:48.384Z,13.00
2023-05-02T16:28:51.105Z,12.89
2023-05-02T16:38:55.290Z,12.71
2023-05-02T16:48:57.890Z,12.20
2023-05-02T16:59:01.875Z,12.42
2023-05-02T17:09:04.772Z,11.94
2023-05-02T17:19:08.755Z,11.79
2023-05-02T17:29:11.383Z,12.23
2023-05-02T17:39:15.882Z,12.22
2023-05-02T17:49:18.533Z,11.87
2023-05-02T17:59:22.670Z,11.69
2023-05-02T18:09:25.377Z,11.36
2023-05-02T18:19:29.377Z,11.16
2023-05-02T18:29:32.296Z,11.19
2023-05-02T18:39:36.667Z,10.54
2023-05-02T18:49:39.493Z,10.23
2023-05-02T18:59:43.521Z,9.81
2023-05-02T19:09:46.527Z,9.38
2023-05-02T19:19:51.866Z,9.06
2023-05-02T19:29:54.761Z,8.82
2023-05-02T19:39:59.267Z,8.59
2023-05-02T19:50:01.897Z,8.49
2023-05-02T20:00:07.312Z,8.35
2023-05-02T20:10:10.628Z,8.21
2023-05-02T20:20:14.910Z,8.15
2023-05-02T20:30:18.146Z,8.01
2023-05-02T20:40:22.422Z,7.89
2023-05-02T20:50:25.304Z,7.78
2023-05-02T21:00:29.580Z,7.96
2023-05-02T21:10:32.349Z,7.93
2023-05-02T21:20:38.074Z,7.73
2023-05-02T21:30:40.981Z,7.50
2023-05-02T21:40:44.935Z,7.33
2023-05-02T21:50:47.768Z,7.05
2023-05-02T22:00:51.850Z,6.83
2023-05-02T22:10:54.507Z,6.70
2023-05-02T22:20:58.523Z,6.53
2023-05-02T22:31:01.176Z,6.41
2023-05-02T22:41:06.546Z,6.24
2023-05-02T22:51:09.324Z,6.11
2023-05-02T23:01:13.628Z,6.09
2023-05-02T23:11:16.705Z,6.15
2023-05-02T23:21:21.038Z,6.27
2023-05-02T23:31:23.801Z,6.59
2023-05-02T23:41:28.297Z,6.65
2023-05-02T23:51:31.987Z,6.88
